Главная страница
METAR-TAF:

METAR-TAF

Аэропорты :

Ekati, Северо-Западные Территории, Канада

широта: 64-42N, долгота: 110-37W, высота над уровнем моря: 469 м

Текущие метеонаблюдения

Эта сводка был подготовлена 4 часа и 8 минут назад, в 23:00 UTC
Ветер 9 Узел от северо-северо-восточный
Температура 1°C
Влажность 86%
Давление 1003 hPa
Видимость: 24.1 км
Сплошная облачность на высоте 1000 фута

METAR: CYOA 262300Z 02009KT 15SM OVC010 01/M01 A2962 RMK SC8 LAST OB/NEXT 271100Z

Время: 21:08 (03:08 UTC)

Прогноз

Эта сводка был подготовлена 8 часа и 30 минут назад, в 18:38 UTC
Прогноз действительный с 26-го 19 UTC до 26-го 23 UTC
Ветер 10 Узел от северный
Видимость: 10 км
Рассеянная облачность на высоте 900 фута
временами
С 26-го 19 UTC до 26-го 23 UTC
Отдельные облака на высоте 900 фута

TAF: CYOA 261838Z 2619/2623 36010KT P6SM BKN009 TEMPO 2619/2623 SCT009 RMK NXT FCST WILL BE ISSUED AT 271245Z

Метеонаблюдения и прогнозы для более 4000 аэропортов (сводки METAR и TAF).

Имеющиеся станции представлены на карте желтыми и красными точками.

Чтобы увидеть название станции, наведите на нее мышь.

Затем щелкните, чтобы увидеть метеонаблюдения и метеопрогнозы.

Управление картой: чтобы увеличить масштаб, щелкните зеленые кнопки с черным крестиком; чтобы уменьшить масштаб, щелкните зеленую кнопку с тире; для просмотра соседних карт щелкайте зеленые стрелки.


METAR-TAF: